Time;durP1;ratioP1;P1;durP2;ratioP2;P2;SDS_P1;SDS_P2;PMS_P1;PMS_P2;Temp;Humidity;BMP_temperature;BMP_pressure;BME280_temperature;BME280_humidity;BME280_pressure;Samples;Min_cycle;Max_cycle;Signal;HPM_P1;HPM_P2
2022/09/03 00:01:20;;;;;;;3.35;1.65;;;;;;;16.53;74.38;100552.39;2643083;89;21124;-56
2022/09/03 00:05:50;;;;;;;3.37;1.55;;;;;;;16.52;75.42;100545.85;2645547;87;21332;-56
2022/09/03 00:09:58;;;;;;;3.00;1.70;;;;;;;16.52;76.73;100553.91;2696182;87;21056;-57
2022/09/03 00:14:12;;;;;;;4.92;1.47;;;;;;;16.53;77.76;100547.02;2652835;86;21044;-57
2022/09/03 00:18:19;;;;;;;2.85;1.85;;;;;;;16.48;76.88;100544.46;2678154;87;21064;-56
2022/09/03 00:22:33;;;;;;;2.02;1.12;;;;;;;16.42;75.99;100540.08;2596141;89;21021;-56
2022/09/03 00:26:44;;;;;;;2.83;1.90;;;;;;;16.41;75.96;100534.36;2618848;88;21126;-56
2022/09/03 00:31:15;;;;;;;4.92;1.07;;;;;;;16.36;75.13;100532.66;2599928;90;21080;-54
2022/09/03 00:35:23;;;;;;;4.00;1.65;;;;;;;16.36;75.51;100539.38;2686008;86;21147;-57
2022/09/03 00:39:27;;;;;;;1.77;1.55;;;;;;;16.28;75.98;100536.61;2705248;86;21076;-57
2022/09/03 00:43:50;;;;;;;3.35;1.85;;;;;;;16.27;76.04;100534.93;2688132;86;21100;-56
2022/09/03 00:48:16;;;;;;;5.05;1.15;;;;;;;16.26;75.68;100534.10;2720112;85;20972;-56
2022/09/03 00:52:51;;;;;;;4.55;1.57;;;;;;;16.29;74.77;100540.98;2674569;88;21088;-57
2022/09/03 00:57:15;;;;;;;1.55;1.07;;;;;;;16.26;74.21;100535.45;2673227;87;21082;-54
2022/09/03 01:01:29;;;;;;;3.72;1.50;;;;;;;16.22;75.34;100535.91;2689253;86;21108;-57
2022/09/03 01:05:36;;;;;;;2.17;1.02;;;;;;;16.20;76.19;100533.88;2720195;86;21030;-56
2022/09/03 01:10:03;;;;;;;1.55;1.17;;;;;;;16.16;76.75;100537.89;2712231;84;21007;-57
2022/09/03 01:14:33;;;;;;;2.80;1.98;;;;;;;16.12;77.17;100531.49;2694522;86;21056;-58
2022/09/03 01:18:40;;;;;;;4.17;1.67;;;;;;;16.07;77.51;100535.13;2715179;85;21052;-53
2022/09/03 01:22:53;;;;;;;2.37;1.80;;;;;;;15.95;77.72;100537.21;2716784;85;21058;-56
2022/09/03 01:27:33;;;;;;;2.08;1.37;;;;;;;15.92;77.92;100529.48;2687491;85;21054;-51
2022/09/03 01:31:58;;;;;;;1.80;1.45;;;;;;;15.83;78.20;100524.52;2676082;87;21029;-55
2022/09/03 01:36:20;;;;;;;4.12;1.92;;;;;;;15.79;76.87;100523.14;2701972;86;21008;-57
2022/09/03 01:40:42;;;;;;;5.60;1.98;;;;;;;15.74;75.28;100521.91;2733627;85;21003;-56
2022/09/03 01:45:05;;;;;;;16.50;2.10;;;;;;;15.66;75.62;100526.70;2709466;85;21151;-57
2022/09/03 01:49:32;;;;;;;2.83;1.60;;;;;;;15.52;75.25;100526.22;2694407;86;21527;-58
2022/09/03 01:54:19;;;;;;;3.65;1.40;;;;;;;15.40;75.32;100523.44;2707529;85;21096;-58
2022/09/03 01:58:39;;;;;;;2.27;1.98;;;;;;;15.29;75.20;100529.86;2685755;87;20997;-54
2022/09/03 02:02:49;;;;;;;3.47;1.62;;;;;;;15.18;75.46;100529.58;2714705;85;21040;-56
2022/09/03 02:06:56;;;;;;;2.75;1.70;;;;;;;15.11;75.67;100541.86;2653964;88;21244;-58
2022/09/03 02:11:01;;;;;;;3.50;1.35;;;;;;;15.10;75.85;100555.77;2636974;88;21083;-57
2022/09/03 02:15:11;;;;;;;2.87;1.92;;;;;;;15.08;75.60;100544.84;2580591;86;21610;-54
2022/09/03 02:19:16;;;;;;;6.65;1.57;;;;;;;15.03;75.76;100544.45;2607990;88;21410;-56
2022/09/03 02:23:17;;;;;;;3.17;1.40;;;;;;;14.99;75.69;100544.76;2562168;90;21150;-56
2022/09/03 02:27:19;;;;;;;1.45;1.35;;;;;;;14.93;75.86;100539.97;2598589;89;21032;-55
2022/09/03 02:31:21;;;;;;;2.92;1.30;;;;;;;14.88;75.73;100541.43;2699252;86;21027;-54
2022/09/03 02:35:22;;;;;;;2.17;1.22;;;;;;;14.84;75.65;100538.20;2708122;86;21047;-55
2022/09/03 02:39:26;;;;;;;3.08;1.87;;;;;;;14.81;75.68;100536.64;2691846;87;21102;-55
2022/09/03 02:43:59;;;;;;;7.80;2.33;;;;;;;14.75;75.83;100537.75;2713028;85;21081;-55
2022/09/03 02:48:01;;;;;;;1.50;1.37;;;;;;;14.70;75.90;100532.80;2698245;86;21077;-56
2022/09/03 02:52:20;;;;;;;1.80;1.60;;;;;;;14.60;76.21;100530.64;2700446;87;21030;-55
2022/09/03 02:56:26;;;;;;;5.12;1.98;;;;;;;14.49;76.83;100523.16;2682911;86;21064;-56
2022/09/03 03:00:27;;;;;;;2.20;2.00;;;;;;;14.41;76.93;100525.69;2709509;86;21029;-56
2022/09/03 03:04:32;;;;;;;3.33;1.92;;;;;;;14.33;77.20;100525.08;2705471;85;21080;-55
2022/09/03 03:08:34;;;;;;;2.90;1.10;;;;;;;14.24;77.51;100523.28;2713397;86;21058;-58
2022/09/03 03:12:42;;;;;;;2.85;1.95;;;;;;;14.14;77.94;100520.11;2715707;86;20982;-51
2022/09/03 03:16:44;;;;;;;4.35;1.92;;;;;;;14.06;78.10;100525.35;2695950;85;21052;-53
2022/09/03 03:20:47;;;;;;;4.55;1.50;;;;;;;14.01;78.23;100523.61;2696759;86;21028;-55
2022/09/03 03:24:49;;;;;;;2.10;1.40;;;;;;;13.92;78.62;100523.10;2739982;85;21006;-56
2022/09/03 03:28:58;;;;;;;2.75;1.80;;;;;;;13.83;78.73;100518.97;2739376;86;21036;-55
2022/09/03 03:33:00;;;;;;;3.92;1.87;;;;;;;13.75;79.07;100524.16;2724717;86;21340;-56
2022/09/03 03:37:01;;;;;;;2.87;1.75;;;;;;;13.69;79.29;100518.05;2708612;86;21046;-56
2022/09/03 03:41:17;;;;;;;8.75;2.33;;;;;;;13.63;79.55;100518.11;2667189;87;20968;-54
2022/09/03 03:45:19;;;;;;;3.42;2.12;;;;;;;13.54;79.88;100528.31;2686502;88;21019;-55
2022/09/03 03:49:20;;;;;;;3.83;2.17;;;;;;;13.46;80.07;100530.34;2721846;85;21245;-54
2022/09/03 03:53:21;;;;;;;3.80;1.65;;;;;;;13.42;80.08;100543.09;2670497;87;21060;-54
2022/09/03 03:57:23;;;;;;;3.15;2.33;;;;;;;13.40;80.21;100542.91;2735120;85;21036;-57
2022/09/03 04:01:27;;;;;;;1.87;1.20;;;;;;;13.40;80.07;100538.89;2667080;86;21084;-58
2022/09/03 04:05:29;;;;;;;3.17;1.72;;;;;;;13.37;80.06;100542.67;2685283;86;21113;-58
2022/09/03 04:09:31;;;;;;;8.25;2.20;;;;;;;13.36;80.01;100545.47;2671019;86;21127;-56
2022/09/03 04:13:41;;;;;;;2.22;2.00;;;;;;;13.35;80.06;100552.66;2669430;87;21100;-56
2022/09/03 04:17:43;;;;;;;3.90;1.75;;;;;;;13.34;80.17;100547.44;2759103;85;21012;-55
2022/09/03 04:21:45;;;;;;;5.10;2.50;;;;;;;13.31;80.53;100545.05;2755942;85;21040;-56
2022/09/03 04:25:53;;;;;;;2.77;1.90;;;;;;;13.24;80.68;100540.27;2719703;86;21025;-58
2022/09/03 04:30:11;;;;;;;3.10;2.45;;;;;;;13.21;81.09;100544.55;2724786;86;21124;-53
2022/09/03 04:34:30;;;;;;;3.02;2.25;;;;;;;13.26;81.20;100548.13;2696238;86;21014;-56
2022/09/03 04:38:36;;;;;;;5.10;1.95;;;;;;;13.32;81.70;100548.93;2687354;85;21089;-57
2022/09/03 04:42:38;;;;;;;3.92;2.50;;;;;;;13.78;82.81;100551.98;2723119;85;21081;-56
2022/09/03 04:46:39;;;;;;;4.87;2.22;;;;;;;14.43;81.66;100544.64;2696752;86;21094;-55
2022/09/03 04:50:41;;;;;;;2.80;2.12;;;;;;;15.18;80.46;100559.53;2702573;86;21176;-56
2022/09/03 04:54:52;;;;;;;3.00;1.87;;;;;;;15.93;77.57;100559.84;2701204;86;21039;-55
2022/09/03 05:03:27;;;;;;;3.17;1.77;;;;;;;16.79;71.39;100558.75;2683267;86;21075;-57
2022/09/03 05:07:37;;;;;;;2.52;1.87;;;;;;;17.32;70.74;100549.25;2720922;85;21227;-57
2022/09/03 05:16:11;;;;;;;2.95;1.40;;;;;;;18.29;67.25;100544.66;2687102;86;21298;-57
2022/09/03 05:20:13;;;;;;;3.47;1.60;;;;;;;18.57;65.14;100542.91;2730316;86;21070;-57
2022/09/03 05:24:15;;;;;;;2.58;2.10;;;;;;;18.64;64.60;100543.88;2631869;88;21118;-56
2022/09/03 05:28:16;;;;;;;5.12;1.92;;;;;;;18.58;64.52;100544.58;2616826;90;21000;-57
2022/09/03 05:32:17;;;;;;;3.92;2.65;;;;;;;18.85;63.87;100554.59;2648377;88;21031;-56
2022/09/03 05:36:22;;;;;;;6.83;2.52;;;;;;;19.31;63.84;100550.41;2591700;88;21055;-57
2022/09/03 05:40:24;;;;;;;5.03;3.70;;;;;;;19.64;63.05;100556.43;2697534;87;21071;-57
2022/09/03 05:44:25;;;;;;;4.35;2.90;;;;;;;19.97;60.49;100554.02;2729501;86;21115;-58
2022/09/03 05:48:33;;;;;;;5.17;3.08;;;;;;;20.22;59.49;100547.05;2692092;87;31900;-58
2022/09/03 05:52:35;;;;;;;7.92;3.87;;;;;;;20.05;58.97;100552.63;2653989;86;21132;-57
2022/09/03 06:34:36;;;;;;;3.83;2.40;;;;;;;19.25;62.18;100568.13;3065148;76;23204;-85
2022/09/03 06:38:39;;;;;;;6.10;2.27;;;;;;;19.15;61.75;100570.17;2998803;78;21050;-86
2022/09/03 06:42:41;;;;;;;2.80;2.20;;;;;;;19.17;61.27;100566.30;2988619;78;21053;-87
2022/09/03 06:46:43;;;;;;;2.08;1.65;;;;;;;19.17;60.46;100568.17;3022090;77;21018;-86
2022/09/03 06:51:00;;;;;;;7.50;2.33;;;;;;;19.20;62.15;100565.94;2991310;78;21083;-87
2022/09/03 06:55:01;;;;;;;3.08;2.27;;;;;;;19.28;61.40;100565.59;2919537;80;21038;-86
2022/09/03 06:59:08;;;;;;;4.35;2.02;;;;;;;19.24;59.68;100568.62;2915394;80;21045;-87
2022/09/03 07:03:09;;;;;;;5.42;2.50;;;;;;;19.04;60.55;100564.66;2918655;79;22209;-86
2022/09/03 07:07:12;;;;;;;2.83;1.92;;;;;;;18.92;61.64;100568.22;2935658;80;20998;-87
2022/09/03 07:11:18;;;;;;;4.90;1.80;;;;;;;18.94;62.07;100561.66;2901109;80;21164;-87
2022/09/03 07:15:19;;;;;;;4.87;2.02;;;;;;;19.00;61.36;100569.59;2921116;80;21086;-87
2022/09/03 07:19:21;;;;;;;3.17;1.85;;;;;;;19.20;61.95;100567.30;2942372;80;20974;-87
2022/09/03 07:23:22;;;;;;;4.53;2.42;;;;;;;19.37;61.05;100568.56;2918576;80;21043;-87
2022/09/03 07:27:23;;;;;;;3.95;2.37;;;;;;;19.58;60.32;100571.14;2861328;80;21053;-87
2022/09/03 07:31:30;;;;;;;3.05;2.33;;;;;;;19.60;59.21;100569.10;2886829;80;21040;-86
2022/09/03 07:35:36;;;;;;;8.13;2.27;;;;;;;19.70;59.50;100567.02;2927724;80;21038;-87
2022/09/03 07:39:40;;;;;;;3.72;2.55;;;;;;;19.80;61.31;100574.36;2937718;80;21467;-87
2022/09/03 07:43:45;;;;;;;11.00;2.70;;;;;;;19.73;59.65;100573.91;2926804;80;21015;-87
2022/09/03 07:47:48;;;;;;;2.02;1.82;;;;;;;19.92;60.26;100571.28;2924067;80;21560;-91
2022/09/03 07:51:52;;;;;;;3.42;2.65;;;;;;;20.06;59.92;100566.45;2882977;80;21034;-90
2022/09/03 07:55:56;;;;;;;7.35;3.47;;;;;;;20.12;59.36;100563.51;2901269;80;20998;-90
2022/09/03 07:59:57;;;;;;;3.62;3.02;;;;;;;20.07;59.19;100577.58;2922667;80;21315;-90
2022/09/03 08:04:00;;;;;;;5.25;2.45;;;;;;;20.22;59.15;100570.00;2928507;79;21022;-90
2022/09/03 08:08:03;;;;;;;4.60;1.80;;;;;;;20.24;59.89;100567.46;2927960;80;21116;-86
2022/09/03 08:12:05;;;;;;;8.18;3.27;;;;;;;20.24;58.91;100570.66;2921164;80;21058;-86
2022/09/03 08:16:08;;;;;;;6.33;3.20;;;;;;;20.22;59.38;100565.95;2933474;79;21081;-86
2022/09/03 08:20:10;;;;;;;6.95;2.90;;;;;;;20.19;59.79;100570.38;2938595;80;21391;-85
2022/09/03 08:24:14;;;;;;;8.33;3.77;;;;;;;20.19;60.10;100567.17;2937554;80;21379;-86
2022/09/03 08:28:16;;;;;;;7.92;2.62;;;;;;;20.20;58.93;100561.25;2925478;80;21605;-86
2022/09/03 08:32:17;;;;;;;5.40;2.72;;;;;;;20.31;59.53;100562.66;2928293;80;21081;-87
2022/09/03 08:36:28;;;;;;;6.05;3.67;;;;;;;20.18;58.95;100561.45;2909863;80;21050;-87
2022/09/03 08:40:27;;;;;;;8.45;3.72;;;;;;;20.02;58.07;100562.41;2914590;80;21094;-88
2022/09/03 08:44:46;;;;;;;5.92;3.27;;;;;;;20.22;59.61;100551.09;2894763;80;21062;-91
2022/09/03 08:48:47;;;;;;;7.92;2.58;;;;;;;20.36;59.28;100556.23;2927247;80;21050;-87
2022/09/03 08:53:09;;;;;;;5.30;3.40;;;;;;;20.41;60.08;100553.27;2938594;80;21646;-86
2022/09/03 08:57:13;;;;;;;21.60;4.45;;;;;;;20.48;60.24;100547.98;2785259;83;21054;-84
2022/09/03 09:01:30;;;;;;;7.22;3.80;;;;;;;20.57;59.12;100551.44;2746331;85;21042;-84
2022/09/03 09:05:54;;;;;;;4.58;3.50;;;;;;;20.66;58.33;100550.83;2782016;84;21098;-83
2022/09/03 09:10:06;;;;;;;11.95;3.60;;;;;;;20.78;59.52;100548.00;2773151;84;21054;-92
2022/09/03 09:14:25;;;;;;;9.10;3.95;;;;;;;20.65;60.36;100547.31;2751219;84;21274;-85
2022/09/03 09:18:50;;;;;;;11.20;4.50;;;;;;;20.76;59.83;100538.39;2759323;84;21101;-88
2022/09/03 09:23:07;;;;;;;9.28;3.80;;;;;;;20.95;59.72;100547.84;2766071;84;21720;-86
2022/09/03 09:27:08;;;;;;;12.03;4.87;;;;;;;21.19;60.94;100537.73;2762339;84;21093;-86
2022/09/03 09:31:14;;;;;;;7.12;3.75;;;;;;;21.36;59.36;100527.50;2802792;83;21327;-89
2022/09/03 09:35:18;;;;;;;4.62;3.70;;;;;;;21.48;59.72;100530.04;3002906;77;21015;-88
2022/09/03 09:39:20;;;;;;;5.70;3.30;;;;;;;21.35;58.64;100526.68;3006909;77;21000;-89
2022/09/03 09:43:23;;;;;;;6.42;3.95;;;;;;;21.39;59.41;100521.70;3010837;77;21541;-94
2022/09/03 09:47:30;;;;;;;8.83;4.47;;;;;;;21.50;60.16;100518.50;3004346;78;21040;-94
2022/09/03 09:51:32;;;;;;;4.47;3.77;;;;;;;21.62;59.73;100522.06;2985232;77;21016;-94
2022/09/03 09:55:33;;;;;;;6.85;3.27;;;;;;;21.64;56.53;100521.35;2987948;77;20994;-95
2022/09/03 09:59:36;;;;;;;5.25;3.75;;;;;;;21.76;57.09;100513.58;2945616;79;21061;-93
2022/09/03 10:03:55;;;;;;;4.83;3.52;;;;;;;21.67;58.09;100505.57;2972856;78;21036;-96
2022/09/03 10:08:00;;;;;;;4.95;2.67;;;;;;;21.57;57.92;100506.90;2968093;79;21040;-93
2022/09/03 10:12:34;;;;;;;7.00;3.55;;;;;;;21.58;57.56;100490.48;2978485;79;21061;-95
2022/09/03 10:16:40;;;;;;;8.23;3.87;;;;;;;21.83;60.42;100501.78;3006928;79;20971;-93
2022/09/03 10:20:51;;;;;;;7.33;3.25;;;;;;;22.07;56.24;100491.55;2936774;79;21058;-96
2022/09/03 10:24:59;;;;;;;4.22;2.95;;;;;;;22.17;55.83;100497.97;2958791;79;21096;-96
2022/09/03 10:29:07;;;;;;;16.85;4.10;;;;;;;22.22;55.31;100493.33;2981298;79;20983;-95
2022/09/03 10:33:34;;;;;;;5.20;3.37;;;;;;;22.28;55.04;100487.10;2980161;79;21518;-96
2022/09/03 10:37:52;;;;;;;7.03;2.92;;;;;;;22.38;56.31;100490.27;2923210;79;21616;-95
2022/09/03 10:42:20;;;;;;;11.88;4.83;;;;;;;22.27;55.22;100485.43;2976794;77;21054;-96
2022/09/03 10:46:26;;;;;;;7.45;3.27;;;;;;;22.24;55.02;100479.88;2973095;79;20990;-96
2022/09/03 10:50:42;;;;;;;6.15;3.08;;;;;;;22.23;55.03;100483.63;2993833;77;21012;-96
2022/09/03 10:54:58;;;;;;;4.60;2.62;;;;;;;22.39;54.95;100475.69;2916929;80;21014;-95
2022/09/03 10:59:38;;;;;;;7.50;3.65;;;;;;;22.45;54.47;100465.11;2931870;79;21042;-96
2022/09/03 11:04:15;;;;;;;5.67;2.75;;;;;;;22.43;54.42;100475.31;2875120;79;21139;-96
2022/09/03 11:08:28;;;;;;;5.40;2.85;;;;;;;22.39;54.39;100468.91;2909011;79;21045;-96
2022/09/03 11:12:38;;;;;;;7.60;2.25;;;;;;;22.50;53.11;100462.66;2927909;79;21545;-96
2022/09/03 11:16:50;;;;;;;3.60;2.15;;;;;;;22.73;54.88;100454.23;2907683;80;21085;-95
2022/09/03 11:21:00;;;;;;;11.68;3.80;;;;;;;22.87;53.24;100452.90;2926885;79;20974;-95
2022/09/03 11:25:09;;;;;;;5.40;2.50;;;;;;;22.89;51.90;100447.59;2901166;80;21061;-95
2022/09/03 11:29:16;;;;;;;5.53;2.42;;;;;;;23.12;54.20;100443.69;2845925;80;71835;-60
2022/09/03 11:33:21;;;;;;;2.45;2.17;;;;;;;23.23;51.78;100440.39;2844122;82;21014;-60
2022/09/03 11:37:30;;;;;;;5.42;2.37;;;;;;;23.00;51.61;100442.64;2849673;82;21010;-57
2022/09/03 11:41:35;;;;;;;3.67;2.40;;;;;;;22.77;51.21;100435.15;2854084;82;20982;-59
2022/09/03 11:45:37;;;;;;;;;;;;;;;22.59;52.16;100428.91;2859759;82;21022;-60
2022/09/03 11:49:49;;;;;;;7.40;3.65;;;;;;;22.46;53.14;100432.37;2820047;83;20086;-65
2022/09/03 11:53:59;;;;;;;4.05;1.47;;;;;;;22.38;53.51;100423.88;2844285;82;20993;-61
2022/09/03 11:58:27;;;;;;;3.72;2.42;;;;;;;22.45;52.69;100423.92;2832775;83;20995;-60
2022/09/03 12:02:33;;;;;;;9.55;3.05;;;;;;;22.62;52.36;100413.63;2804514;85;21088;-64
2022/09/03 12:07:15;;;;;;;4.95;2.45;;;;;;;22.90;54.14;100424.05;2794645;85;20977;-62
2022/09/03 12:12:03;;;;;;;6.70;3.77;;;;;;;23.14;51.17;100418.55;2785390;84;21020;-64
2022/09/03 12:16:38;;;;;;;4.58;2.65;;;;;;;23.52;52.68;100398.98;2757692;86;21095;-59
2022/09/03 12:20:41;;;;;;;;;;;;;;;23.65;50.21;100408.19;2770836;85;21051;-60
2022/09/03 12:24:43;;;;;;;5.08;1.92;;;;;;;23.42;50.50;100407.23;2804849;85;20060;-62
2022/09/03 12:28:48;;;;;;;6.20;3.42;;;;;;;23.21;51.84;100404.48;2832892;83;20996;-60
2022/09/03 12:33:13;;;;;;;3.52;2.25;;;;;;;23.30;52.61;100405.16;2843613;82;21005;-61
2022/09/03 12:37:22;;;;;;;9.20;3.52;;;;;;;23.72;52.03;100398.68;2830980;83;20994;-62
2022/09/03 12:41:30;;;;;;;4.17;2.60;;;;;;;23.58;52.89;100400.04;2874719;81;21045;-64
2022/09/03 12:45:35;;;;;;;9.75;2.52;;;;;;;23.50;54.46;100399.72;2879604;81;21100;-64
2022/09/03 12:49:43;;;;;;;4.83;2.85;;;;;;;23.57;55.13;100395.66;2901662;80;20963;-61
2022/09/03 12:53:45;;;;;;;6.65;2.92;;;;;;;23.71;52.85;100395.11;2879876;80;21037;-55
2022/09/03 12:57:52;;;;;;;4.37;2.90;;;;;;;24.06;54.06;100396.24;2871108;83;21002;-55
2022/09/03 13:01:57;;;;;;;7.17;3.15;;;;;;;24.06;51.06;100391.31;2845034;82;21019;-54
2022/09/03 13:06:06;;;;;;;23.42;4.85;;;;;;;24.20;52.00;100386.70;2791342;83;21010;-57
2022/09/03 13:10:19;;;;;;;3.58;2.42;;;;;;;24.17;52.26;100374.88;2845356;82;21069;-58
2022/09/03 13:14:22;;;;;;;4.55;2.22;;;;;;;24.18;51.33;100380.11;2838682;81;21010;-56
2022/09/03 13:18:44;;;;;;;2.50;2.00;;;;;;;24.13;51.48;100373.64;2813541;84;21072;-56
2022/09/03 13:23:19;;;;;;;8.93;6.08;;;;;;;23.96;52.43;100374.92;2808626;81;67844;-89
2022/09/03 13:27:53;;;;;;;8.13;6.25;;;;;;;24.00;51.40;100375.84;2772484;84;21082;-88
2022/09/03 13:32:08;;;;;;;6.15;5.55;;;;;;;23.99;52.92;100378.25;2778534;84;21073;-89
2022/09/03 13:36:21;;;;;;;;;;;;;;;23.97;51.57;100378.45;2785748;84;21111;-87
2022/09/03 13:40:30;;;;;;;4.60;3.77;;;;;;;23.59;52.92;100375.91;2787396;84;20128;-88
2022/09/03 13:45:11;;;;;;;3.12;2.83;;;;;;;23.43;52.75;100373.11;2797862;84;21081;-89
2022/09/03 14:15:57;;;;;;;4.85;2.70;;;;;;;23.43;52.83;100354.11;2713826;84;21093;-56
2022/09/03 14:20:23;;;;;;;3.55;2.42;;;;;;;23.09;53.43;100368.15;2664672;86;21051;-56
2022/09/03 14:24:38;;;;;;;4.62;2.80;;;;;;;23.05;53.58;100362.83;2686992;86;21460;-55
2022/09/03 14:33:20;;;;;;;6.28;2.55;;;;;;;23.18;53.15;100349.26;2775622;82;20063;-59
2022/09/03 14:47:11;;;;;;;4.95;2.70;;;;;;;23.34;53.33;100352.13;2842861;83;21032;-59
2022/09/03 14:56:23;;;;;;;20.37;8.38;;;;;;;23.25;53.39;100345.19;2828298;83;21032;-58
2022/09/03 15:00:55;;;;;;;17.50;6.45;;;;;;;23.29;52.85;100337.52;2859650;83;20973;-61
2022/09/03 15:05:37;;;;;;;5.67;4.03;;;;;;;23.17;55.19;100335.37;2857369;81;20996;-60
2022/09/03 15:10:29;;;;;;;19.62;7.25;;;;;;;23.04;55.13;100338.92;2870420;81;21061;-59
2022/09/03 15:14:52;;;;;;;8.45;4.08;;;;;;;22.99;53.95;100346.00;2852150;83;21013;-61
2022/09/03 15:19:57;;;;;;;6.40;3.60;;;;;;;22.90;54.33;100346.21;2807765;83;21067;-63
2022/09/03 15:24:07;;;;;;;5.12;3.72;;;;;;;22.96;54.82;100350.80;2856417;81;20981;-60
2022/09/03 15:28:16;;;;;;;4.30;3.05;;;;;;;22.98;53.84;100342.47;2867794;82;20993;-59
2022/09/03 15:36:59;;;;;;;4.67;3.15;;;;;;;22.76;54.36;100345.86;2823712;82;21182;-90
2022/09/03 15:41:13;;;;;;;3.62;2.15;;;;;;;22.71;55.13;100342.94;2782330;83;21019;-91
2022/09/03 15:45:38;;;;;;;9.33;3.60;;;;;;;22.56;54.26;100338.52;2754656;85;21097;-94
2022/09/03 15:50:00;;;;;;;10.35;3.52;;;;;;;22.62;55.18;100347.71;2771945;84;21548;-95
2022/09/03 15:54:15;;;;;;;6.37;3.05;;;;;;;22.70;55.57;100348.05;2658471;86;21080;-88
2022/09/03 15:58:37;;;;;;;14.95;5.67;;;;;;;22.68;56.06;100350.45;2669022;87;21068;-96
2022/09/03 16:03:05;;;;;;;6.47;3.08;;;;;;;22.53;55.05;100353.33;2653804;87;21036;-95
2022/09/03 16:07:38;;;;;;;5.20;3.08;;;;;;;22.40;57.24;100353.23;2659484;86;21524;-90
2022/09/03 16:11:57;;;;;;;7.30;3.83;;;;;;;22.23;57.82;100356.83;2661140;86;21072;-93
2022/09/03 16:20:49;;;;;;;4.28;3.83;;;;;;;22.02;59.32;100357.25;2580194;88;21158;-87
2022/09/03 16:24:56;;;;;;;4.70;3.15;;;;;;;21.92;58.99;100360.82;2618843;87;21646;-89
2022/09/03 16:29:09;;;;;;;5.97;3.45;;;;;;;21.85;58.90;100359.42;2633738;89;21078;-90
2022/09/03 16:33:25;;;;;;;4.00;3.05;;;;;;;21.75;59.66;100354.89;2657895;88;21079;-89
2022/09/03 16:37:55;;;;;;;7.50;4.42;;;;;;;21.52;59.82;100351.36;2657411;87;21602;-90
2022/09/03 16:42:22;;;;;;;3.20;2.90;;;;;;;21.30;59.98;100351.08;2656536;88;21098;-90
2022/09/03 16:46:49;;;;;;;4.17;3.70;;;;;;;21.14;61.23;100358.44;2643165;88;21118;-90
2022/09/03 16:51:14;;;;;;;4.92;3.22;;;;;;;21.02;61.88;100366.23;2650610;88;21072;-89
2022/09/03 16:55:29;;;;;;;4.55;3.50;;;;;;;20.87;62.98;100362.73;2661380;88;21097;-89
2022/09/03 16:59:47;;;;;;;3.47;2.95;;;;;;;20.73;63.83;100366.61;2723342;85;21065;-90
2022/09/03 17:04:35;;;;;;;4.55;3.15;;;;;;;20.61;64.82;100368.97;2739744;84;21676;-89
2022/09/03 17:09:02;;;;;;;5.55;4.25;;;;;;;20.44;65.61;100375.63;2746484;84;21122;-90
2022/09/03 17:13:31;;;;;;;8.85;3.52;;;;;;;20.30;66.29;100376.83;2729753;85;21024;-88
2022/09/03 17:17:59;;;;;;;5.62;3.95;;;;;;;20.16;67.36;100377.17;2704940;85;21050;-88
2022/09/03 17:22:41;;;;;;;5.78;4.22;;;;;;;20.03;68.04;100374.27;2627752;89;21175;-93
2022/09/03 17:27:03;;;;;;;5.25;3.60;;;;;;;19.91;68.51;100372.02;2606845;90;21153;-93
2022/09/03 17:31:25;;;;;;;5.53;3.50;;;;;;;19.83;68.34;100374.26;2626891;87;21151;-92
2022/09/03 17:35:40;;;;;;;6.97;3.77;;;;;;;19.76;68.24;100367.94;2597322;90;21600;-94
2022/09/03 17:40:22;;;;;;;5.97;4.12;;;;;;;19.65;68.58;100377.33;2601784;91;21145;-93
2022/09/03 17:45:00;;;;;;;5.75;4.30;;;;;;;19.58;68.74;100381.78;2594002;89;21129;-89
2022/09/03 17:49:06;;;;;;;8.45;4.45;;;;;;;19.46;69.27;100381.39;2604602;91;21057;-90
2022/09/03 17:53:24;;;;;;;;;;;;;;;19.36;69.75;100385.69;2632007;88;21085;-88
2022/09/03 17:57:38;;;;;;;9.20;4.45;;;;;;;19.23;70.32;100392.19;2626982;89;20128;-88
2022/09/03 18:01:48;;;;;;;6.00;4.62;;;;;;;19.06;70.57;100392.80;2635988;88;21083;-91
2022/09/03 18:06:10;;;;;;;9.68;4.67;;;;;;;18.97;71.33;100402.80;2483568;94;21143;-93
2022/09/03 18:10:33;;;;;;;5.67;4.25;;;;;;;18.87;71.90;100412.45;2539160;91;21114;-96
2022/09/03 18:14:48;;;;;;;6.72;4.30;;;;;;;18.80;72.02;100407.42;2514915;92;21117;-89
2022/09/03 18:18:51;;;;;;;4.80;4.20;;;;;;;18.69;72.88;100417.59;2519518;92;21843;-88
2022/09/03 20:12:24;;;;;;;9.93;7.15;;;;;;;16.99;82.07;100474.72;2645512;87;21093;-94
2022/09/03 20:16:37;;;;;;;15.65;8.30;;;;;;;16.86;83.41;100480.53;2647775;88;21125;-96
2022/09/03 20:20:55;;;;;;;6.72;6.08;;;;;;;16.76;83.61;100473.12;2644562;85;21365;-95
2022/09/03 20:25:34;;;;;;;10.03;7.65;;;;;;;16.69;83.25;100483.14;2736910;85;21031;-95
2022/09/03 20:29:53;;;;;;;9.90;8.20;;;;;;;16.66;84.08;100483.47;2712207;85;21114;-91
2022/09/03 20:34:33;;;;;;;15.25;9.93;;;;;;;16.60;84.24;100486.81;2728601;85;21558;-93
2022/09/03 20:39:07;;;;;;;14.65;9.33;;;;;;;16.51;84.99;100491.30;2724943;86;21035;-93
2022/09/03 20:43:46;;;;;;;16.23;11.78;;;;;;;16.45;85.34;100492.43;2719695;85;21078;-88
2022/09/03 20:48:22;;;;;;;22.45;12.47;;;;;;;16.44;84.67;100501.00;2711517;85;21042;-93
2022/09/03 20:52:44;;;;;;;19.05;11.55;;;;;;;16.43;84.91;100499.31;2737721;85;21086;-95
2022/09/03 20:57:30;;;;;;;16.45;9.05;;;;;;;16.43;84.70;100502.00;2703381;85;21126;-94
2022/09/03 21:01:52;;;;;;;8.33;6.65;;;;;;;16.36;85.22;100500.93;2614204;86;21065;-95
2022/09/03 21:06:11;;;;;;;8.20;7.37;;;;;;;16.25;85.62;100500.22;2661265;87;21058;-90
2022/09/03 21:10:30;;;;;;;12.25;8.53;;;;;;;16.19;86.15;100510.73;2662894;87;21034;-89
2022/09/03 21:14:49;;;;;;;11.68;8.83;;;;;;;16.15;86.21;100507.52;2662421;88;21125;-90
2022/09/03 21:19:05;;;;;;;12.88;8.93;;;;;;;16.11;86.98;100510.17;2659517;87;21644;-89
2022/09/03 21:23:26;;;;;;;19.82;10.80;;;;;;;16.08;87.73;100513.17;2673791;88;21637;-89
2022/09/03 21:27:40;;;;;;;14.85;9.85;;;;;;;16.03;88.02;100512.30;2639577;86;21114;-89
2022/09/03 21:32:04;;;;;;;12.80;9.98;;;;;;;16.00;87.69;100511.27;2661290;86;21057;-89
2022/09/03 21:36:30;;;;;;;13.20;9.30;;;;;;;15.99;87.75;100519.80;2669791;85;21095;-87
2022/09/03 21:40:34;;;;;;;;;;;;;;;15.97;88.37;100518.29;2732002;85;21049;-86
2022/09/03 21:44:44;;;;;;;12.98;9.30;;;;;;;15.91;89.15;100520.23;2755955;85;20141;-88
2022/09/03 21:49:05;;;;;;;15.13;10.55;;;;;;;15.91;88.18;100516.20;2694632;86;21070;-88
2022/09/03 21:53:30;;;;;;;23.02;15.32;;;;;;;15.88;88.16;100519.17;2689624;86;21085;-87
2022/09/03 21:57:40;;;;;;;12.82;9.23;;;;;;;15.82;89.00;100516.61;2714203;85;21094;-88
2022/09/03 22:02:22;;;;;;;12.15;8.98;;;;;;;15.84;89.08;100520.83;2722958;85;21104;-87
2022/09/03 22:06:34;;;;;;;15.35;9.55;;;;;;;15.82;89.60;100524.66;2712113;85;21207;-88
2022/09/03 22:11:12;;;;;;;17.85;9.85;;;;;;;15.79;89.25;100527.16;2729935;85;21041;-88
2022/09/03 22:15:13;;;;;;;23.38;9.65;;;;;;;15.82;89.21;100522.83;2728573;85;21033;-87
2022/09/03 22:19:15;;;;;;;8.53;7.65;;;;;;;15.80;89.56;100523.48;2724456;85;21044;-87
2022/09/03 22:23:23;;;;;;;11.38;9.30;;;;;;;15.79;89.19;100520.45;2738638;84;20983;-88
2022/09/03 22:27:42;;;;;;;13.53;9.68;;;;;;;15.78;89.00;100523.28;2751896;84;21767;-90
2022/09/03 22:31:58;;;;;;;10.72;8.70;;;;;;;15.70;89.97;100525.39;2745235;84;21070;-88
2022/09/03 22:36:19;;;;;;;11.25;6.95;;;;;;;15.60;90.37;100527.32;2778467;84;21093;-89
2022/09/03 22:40:38;;;;;;;12.45;7.92;;;;;;;15.49;90.83;100533.23;2741020;84;21031;-89
2022/09/03 22:45:25;;;;;;;13.68;7.55;;;;;;;15.41;91.34;100525.95;2770000;84;21089;-87
2022/09/03 22:49:40;;;;;;;9.90;8.53;;;;;;;15.30;92.22;100516.80;2744826;84;21078;-89
2022/09/03 22:54:33;;;;;;;11.55;6.95;;;;;;;15.22;92.59;100512.20;2712949;86;21093;-89
2022/09/03 22:58:40;;;;;;;12.00;8.18;;;;;;;15.10;93.82;100520.94;2661091;88;21040;-88
2022/09/03 23:02:41;;;;;;;12.18;7.87;;;;;;;15.05;93.88;100519.70;2740243;85;21601;-88
2022/09/03 23:07:00;;;;;;;11.35;8.35;;;;;;;14.98;94.68;100518.11;2742099;84;21083;-87
2022/09/03 23:11:24;;;;;;;9.05;7.40;;;;;;;14.96;94.18;100518.27;2733649;85;21606;-87